createdAt,value
2023-05-13T00:00:58.835Z,4.60
2023-05-13T00:03:28.766Z,4.45
2023-05-13T00:05:56.768Z,19.00
2023-05-13T00:08:24.666Z,6.63
2023-05-13T00:10:52.584Z,4.90
2023-05-13T00:13:20.308Z,5.20
2023-05-13T00:15:48.278Z,4.70
2023-05-13T00:18:16.091Z,5.10
2023-05-13T00:20:45.362Z,4.50
2023-05-13T00:23:13.086Z,4.68
2023-05-13T00:25:41.310Z,5.75
2023-05-13T00:28:09.098Z,5.45
2023-05-13T00:30:36.826Z,6.03
2023-05-13T00:33:06.494Z,5.35
2023-05-13T00:35:34.211Z,6.03
2023-05-13T00:38:03.405Z,5.28
2023-05-13T00:40:31.261Z,5.72
2023-05-13T00:42:59.047Z,5.13
2023-05-13T00:45:27.338Z,5.55
2023-05-13T00:47:55.874Z,5.57
2023-05-13T00:50:23.982Z,6.30
2023-05-13T00:52:52.722Z,6.10
2023-05-13T00:55:22.541Z,5.82
2023-05-13T00:57:50.301Z,6.15
2023-05-13T01:00:18.738Z,6.22
2023-05-13T01:02:52.159Z,6.10
2023-05-13T01:05:28.108Z,6.63
2023-05-13T01:08:05.254Z,6.63
2023-05-13T01:10:39.480Z,6.70
2023-05-13T01:13:10.657Z,6.88
2023-05-13T01:15:42.166Z,6.60
2023-05-13T01:18:14.769Z,6.45
2023-05-13T01:20:43.751Z,7.32
2023-05-13T01:23:13.618Z,7.40
2023-05-13T01:25:41.835Z,6.57
2023-05-13T01:28:10.627Z,6.88
2023-05-13T01:30:38.676Z,7.47
2023-05-13T01:33:06.873Z,7.43
2023-05-13T01:35:35.561Z,8.20
2023-05-13T01:38:04.201Z,6.85
2023-05-13T01:40:35.792Z,7.53
2023-05-13T01:43:03.888Z,7.55
2023-05-13T01:45:33.209Z,7.68
2023-05-13T01:48:01.107Z,7.47
2023-05-13T01:50:29.029Z,7.32
2023-05-13T01:52:57.393Z,8.10
2023-05-13T01:55:25.219Z,7.68
2023-05-13T01:57:54.371Z,7.25
2023-05-13T02:00:22.811Z,8.55
2023-05-13T02:02:50.773Z,7.55
2023-05-13T02:05:18.846Z,7.63
2023-05-13T02:07:46.609Z,7.55
2023-05-13T02:10:14.379Z,8.32
2023-05-13T02:12:42.192Z,8.27
2023-05-13T02:15:12.249Z,8.68
2023-05-13T02:17:40.091Z,7.75
2023-05-13T02:20:09.271Z,7.78
2023-05-13T02:22:37.139Z,8.13
2023-05-13T02:25:05.296Z,8.38
2023-05-13T02:27:33.287Z,14.40
2023-05-13T02:30:01.457Z,9.18
2023-05-13T02:32:30.585Z,8.68
2023-05-13T02:34:58.438Z,9.30
2023-05-13T02:37:26.721Z,8.90
2023-05-13T02:39:55.771Z,8.23
2023-05-13T02:42:23.527Z,7.85
2023-05-13T02:44:51.520Z,8.88
2023-05-13T02:47:19.313Z,8.45
2023-05-13T02:49:48.576Z,8.98
2023-05-13T02:52:16.430Z,9.07
2023-05-13T02:54:44.278Z,8.45
2023-05-13T02:57:12.477Z,8.57
2023-05-13T02:59:40.242Z,9.55
2023-05-13T03:02:08.392Z,10.27
2023-05-13T03:04:36.210Z,9.45
2023-05-13T03:07:05.963Z,9.68
2023-05-13T03:09:35.173Z,9.60
2023-05-13T03:12:03.053Z,8.95
2023-05-13T03:14:31.018Z,8.98
2023-05-13T03:16:58.781Z,8.88
2023-05-13T03:19:26.492Z,9.05
2023-05-13T03:21:54.367Z,8.65
2023-05-13T03:24:23.914Z,8.70
2023-05-13T03:26:51.802Z,8.50
2023-05-13T03:29:20.404Z,6.95
2023-05-13T03:31:48.316Z,9.02
2023-05-13T03:34:16.197Z,8.93
2023-05-13T03:36:43.933Z,9.20
2023-05-13T03:39:11.722Z,8.75
2023-05-13T03:41:41.037Z,10.30
2023-05-13T03:44:08.782Z,8.90
2023-05-13T03:46:36.650Z,9.40
2023-05-13T03:49:04.817Z,11.18
2023-05-13T03:51:34.251Z,9.90
2023-05-13T03:54:02.272Z,10.30
2023-05-13T03:56:30.124Z,9.52
2023-05-13T03:58:59.392Z,9.13
2023-05-13T04:01:27.321Z,9.20
2023-05-13T04:03:55.179Z,9.68
2023-05-13T04:06:23.049Z,10.10
2023-05-13T04:08:52.463Z,8.90
2023-05-13T04:11:20.226Z,9.60
2023-05-13T04:13:47.914Z,9.07
2023-05-13T04:16:17.434Z,9.40
2023-05-13T04:18:45.559Z,8.57
2023-05-13T04:21:13.325Z,8.20
2023-05-13T04:23:41.112Z,10.20
2023-05-13T04:26:09.509Z,9.85
2023-05-13T04:28:37.381Z,9.52
2023-05-13T04:31:05.143Z,9.40
2023-05-13T04:33:34.344Z,10.32
2023-05-13T04:36:02.269Z,9.10
2023-05-13T04:38:30.032Z,9.80
2023-05-13T04:40:57.714Z,20.42
2023-05-13T04:43:25.757Z,9.85
2023-05-13T04:45:53.753Z,9.77
2023-05-13T04:48:21.596Z,8.73
2023-05-13T04:50:52.550Z,10.25
2023-05-13T04:53:20.874Z,9.85
2023-05-13T04:55:49.661Z,14.73
2023-05-13T04:58:17.537Z,9.50
2023-05-13T05:00:45.701Z,10.52
2023-05-13T05:03:13.485Z,9.85
2023-05-13T05:05:41.380Z,9.90
2023-05-13T05:08:10.471Z,9.63
2023-05-13T05:10:38.281Z,9.18
2023-05-13T05:13:06.100Z,9.35
2023-05-13T05:15:33.934Z,8.40
2023-05-13T05:18:01.860Z,8.60
2023-05-13T05:20:29.731Z,12.93
2023-05-13T05:22:57.480Z,19.38
2023-05-13T05:25:26.744Z,10.00
2023-05-13T05:27:54.576Z,9.77
2023-05-13T05:30:22.886Z,8.93
2023-05-13T05:32:51.323Z,9.32
2023-05-13T05:35:19.900Z,12.00
2023-05-13T05:37:47.704Z,9.80
2023-05-13T05:40:15.675Z,8.98
2023-05-13T05:42:44.740Z,9.02
2023-05-13T05:45:12.829Z,9.73
2023-05-13T05:47:40.603Z,9.15
2023-05-13T05:50:09.187Z,9.30
2023-05-13T05:52:36.959Z,8.50
2023-05-13T05:55:04.794Z,7.70
2023-05-13T05:57:32.519Z,8.73
2023-05-13T06:00:01.597Z,8.05
2023-05-13T06:02:29.525Z,8.93
2023-05-13T06:04:57.352Z,8.30
2023-05-13T06:07:25.173Z,8.63
2023-05-13T06:09:52.892Z,9.13
2023-05-13T06:12:21.245Z,8.68
2023-05-13T06:14:48.908Z,8.73
2023-05-13T06:17:17.997Z,8.88
2023-05-13T06:19:45.837Z,8.10
2023-05-13T06:22:13.653Z,8.23
2023-05-13T06:24:42.978Z,8.10
2023-05-13T06:27:11.559Z,7.97
2023-05-13T06:29:39.422Z,7.90
2023-05-13T06:32:08.301Z,7.82
2023-05-13T06:34:38.373Z,8.18
2023-05-13T06:37:06.110Z,7.03
2023-05-13T06:39:33.819Z,6.72
2023-05-13T06:42:01.526Z,7.85
2023-05-13T06:44:29.364Z,8.13
2023-05-13T06:46:57.204Z,6.90
2023-05-13T06:49:25.190Z,6.80
2023-05-13T06:51:54.376Z,6.70
2023-05-13T06:54:22.166Z,15.32
2023-05-13T06:56:49.929Z,7.07
2023-05-13T06:59:17.758Z,6.93
2023-05-13T07:01:45.475Z,6.43
2023-05-13T07:04:13.323Z,6.85
2023-05-13T07:06:41.236Z,7.22
2023-05-13T07:09:10.532Z,7.07
2023-05-13T07:11:38.811Z,5.95
2023-05-13T07:14:06.592Z,6.65
2023-05-13T07:16:34.357Z,7.45
2023-05-13T07:19:02.195Z,7.68
2023-05-13T07:21:31.119Z,6.68
2023-05-13T07:23:59.022Z,7.03
2023-05-13T07:26:28.206Z,7.05
2023-05-13T07:28:55.918Z,6.40
2023-05-13T07:31:23.753Z,6.43
2023-05-13T07:33:51.526Z,6.65
2023-05-13T07:36:19.383Z,7.22
2023-05-13T07:38:47.105Z,6.72
2023-05-13T07:41:14.806Z,6.18
2023-05-13T07:43:44.327Z,6.10
2023-05-13T07:46:12.165Z,6.43
2023-05-13T07:48:40.146Z,5.85
2023-05-13T07:51:07.979Z,5.95
2023-05-13T07:53:36.700Z,6.05
2023-05-13T07:56:04.746Z,5.88
2023-05-13T07:58:32.529Z,5.82
2023-05-13T08:01:01.680Z,6.53
2023-05-13T08:03:29.504Z,6.82
2023-05-13T08:05:57.513Z,8.88
2023-05-13T08:08:25.210Z,6.05
2023-05-13T08:10:52.944Z,5.97
2023-05-13T08:13:21.479Z,6.38
2023-05-13T08:15:49.290Z,6.03
2023-05-13T08:18:18.391Z,7.35
2023-05-13T08:20:46.242Z,6.45
2023-05-13T08:23:13.900Z,10.00
2023-05-13T08:25:42.020Z,5.53
2023-05-13T08:28:09.820Z,5.28
2023-05-13T08:30:37.737Z,5.25
2023-05-13T08:33:05.695Z,5.90
2023-05-13T08:35:34.817Z,5.28
2023-05-13T08:38:03.830Z,5.10
2023-05-13T08:40:32.139Z,5.88
2023-05-13T08:43:02.948Z,6.70
2023-05-13T08:45:31.998Z,5.25
2023-05-13T08:48:02.228Z,4.63
2023-05-13T08:50:30.049Z,4.68
2023-05-13T08:53:00.782Z,4.60
2023-05-13T08:55:29.656Z,4.70
2023-05-13T08:57:57.437Z,5.05
2023-05-13T09:00:25.506Z,4.50
2023-05-13T09:02:53.410Z,4.50
2023-05-13T09:05:22.937Z,4.35
2023-05-13T09:07:51.052Z,5.13
2023-05-13T09:10:21.584Z,5.03
2023-05-13T09:12:50.973Z,4.97
2023-05-13T09:15:20.775Z,5.10
2023-05-13T09:17:51.524Z,5.53
2023-05-13T09:20:20.372Z,4.95
2023-05-13T09:22:49.380Z,5.00
2023-05-13T09:25:19.509Z,5.20
2023-05-13T09:27:50.973Z,4.70
2023-05-13T09:30:18.787Z,4.72
2023-05-13T09:33:04.788Z,4.80
2023-05-13T09:35:33.222Z,4.63
2023-05-13T09:38:01.244Z,4.82
2023-05-13T09:40:29.317Z,4.60
2023-05-13T09:43:00.036Z,4.65
2023-05-13T09:45:28.100Z,10.18
2023-05-13T09:47:57.450Z,5.03
2023-05-13T09:50:25.428Z,4.35
2023-05-13T09:52:53.306Z,5.22
2023-05-13T09:55:21.161Z,5.60
2023-05-13T09:57:49.501Z,5.60
2023-05-13T10:00:31.652Z,11.80
2023-05-13T10:03:01.135Z,4.85
2023-05-13T10:05:29.055Z,5.07
2023-05-13T10:07:57.746Z,5.35
2023-05-13T10:10:25.919Z,5.25
2023-05-13T10:12:54.236Z,5.65
2023-05-13T10:15:25.490Z,5.97
2023-05-13T10:17:54.042Z,5.82
2023-05-13T10:20:23.100Z,5.30
2023-05-13T10:22:52.171Z,5.20
2023-05-13T10:25:23.073Z,5.90
2023-05-13T10:27:52.440Z,5.65
2023-05-13T10:30:26.215Z,6.07
2023-05-13T10:32:55.587Z,5.50
2023-05-13T10:35:29.058Z,5.18
2023-05-13T10:38:02.872Z,5.30
2023-05-13T10:40:44.945Z,6.20
2023-05-13T10:43:18.222Z,4.80
2023-05-13T10:45:48.172Z,7.45
2023-05-13T10:48:18.364Z,6.55
2023-05-13T10:50:54.517Z,7.32
2023-05-13T10:53:27.430Z,5.47
2023-05-13T10:55:57.215Z,5.00
2023-05-13T10:58:30.872Z,5.63
2023-05-13T11:01:15.070Z,7.82
2023-05-13T11:03:52.392Z,5.70
2023-05-13T11:06:22.932Z,4.82
2023-05-13T11:08:55.767Z,7.22
2023-05-13T11:11:31.223Z,4.30
2023-05-13T11:14:09.083Z,3.92
2023-05-13T11:16:37.611Z,4.82
2023-05-13T11:19:21.463Z,4.35
2023-05-13T11:21:53.012Z,4.50
2023-05-13T11:24:23.075Z,3.97
2023-05-13T11:26:52.892Z,4.55
2023-05-13T11:29:32.531Z,3.78
2023-05-13T11:32:01.914Z,3.33
2023-05-13T11:34:32.144Z,3.40
2023-05-13T11:37:09.541Z,3.15
2023-05-13T11:39:40.765Z,2.80
2023-05-13T11:42:09.856Z,3.47
2023-05-13T11:44:39.094Z,2.65
2023-05-13T11:47:08.112Z,2.72
2023-05-13T11:49:40.396Z,3.10
2023-05-13T11:52:11.192Z,3.55
2023-05-13T11:54:43.978Z,3.40
2023-05-13T11:57:22.255Z,3.55
2023-05-13T11:59:58.733Z,3.35
2023-05-13T12:02:28.680Z,3.45
2023-05-13T12:05:01.811Z,3.30
2023-05-13T12:07:29.665Z,3.33
2023-05-13T12:09:59.430Z,7.15
2023-05-13T12:12:28.289Z,3.72
2023-05-13T12:14:57.142Z,3.53
2023-05-13T12:17:25.316Z,6.88
2023-05-13T12:20:12.922Z,3.25
2023-05-13T12:22:54.470Z,3.17
2023-05-13T12:25:39.929Z,3.80
2023-05-13T12:28:09.115Z,3.40
2023-05-13T12:30:39.779Z,3.88
2023-05-13T12:33:14.627Z,3.58
2023-05-13T12:35:43.906Z,3.83
2023-05-13T12:38:17.446Z,3.65
2023-05-13T12:40:45.853Z,3.65
2023-05-13T12:43:14.136Z,3.65
2023-05-13T12:45:45.489Z,3.90
2023-05-13T12:48:14.336Z,5.00
2023-05-13T12:50:43.571Z,4.28
2023-05-13T12:53:11.345Z,3.47
2023-05-13T12:55:40.105Z,3.53
2023-05-13T12:58:10.938Z,4.15
2023-05-13T13:00:39.021Z,4.63
2023-05-13T13:03:07.937Z,3.55
2023-05-13T13:05:36.072Z,3.78
2023-05-13T13:08:06.289Z,3.75
2023-05-13T13:10:34.741Z,4.22
2023-05-13T13:13:02.578Z,4.05
2023-05-13T13:15:30.667Z,3.83
2023-05-13T13:17:58.796Z,3.63
2023-05-13T13:20:26.680Z,4.00
2023-05-13T13:22:54.853Z,4.18
2023-05-13T13:25:24.333Z,5.30
2023-05-13T13:27:52.291Z,4.80
2023-05-13T13:30:20.025Z,5.38
2023-05-13T13:32:47.769Z,4.10
2023-05-13T13:35:15.718Z,3.90
2023-05-13T13:37:43.476Z,4.30
2023-05-13T13:40:12.944Z,4.03
2023-05-13T13:42:44.499Z,4.32
2023-05-13T13:45:13.507Z,4.68
2023-05-13T13:47:41.352Z,4.18
2023-05-13T13:50:09.633Z,3.92
2023-05-13T13:52:37.323Z,3.22
2023-05-13T13:55:05.855Z,3.83
2023-05-13T13:57:33.670Z,4.00
2023-05-13T14:00:02.926Z,3.70
2023-05-13T14:02:30.868Z,4.05
2023-05-13T14:04:58.655Z,6.20
2023-05-13T14:07:26.578Z,5.88
2023-05-13T14:09:54.273Z,4.47
2023-05-13T14:12:22.015Z,4.28
2023-05-13T14:14:49.753Z,4.32
2023-05-13T14:17:18.978Z,4.07
2023-05-13T14:19:46.797Z,4.43
2023-05-13T14:22:14.504Z,4.10
2023-05-13T14:24:42.193Z,4.50
2023-05-13T14:27:09.985Z,4.43
2023-05-13T14:29:37.737Z,4.75
2023-05-13T14:32:06.341Z,4.53
2023-05-13T14:34:35.753Z,4.70
2023-05-13T14:37:03.574Z,4.70
2023-05-13T14:39:31.383Z,4.63
2023-05-13T14:41:59.145Z,4.57
2023-05-13T14:44:26.827Z,4.28
2023-05-13T14:46:54.732Z,4.68
2023-05-13T14:49:22.680Z,5.30
2023-05-13T14:51:51.806Z,5.50
2023-05-13T14:54:19.596Z,5.55
2023-05-13T14:56:47.557Z,5.30
2023-05-13T14:59:15.341Z,4.82
2023-05-13T15:01:43.073Z,4.88
2023-05-13T15:04:10.854Z,5.47
2023-05-13T15:06:39.428Z,5.97
2023-05-13T15:09:08.651Z,6.68
2023-05-13T15:11:37.175Z,5.70
2023-05-13T15:14:05.602Z,6.38
2023-05-13T15:16:33.433Z,5.80
2023-05-13T15:19:01.229Z,5.72
2023-05-13T15:21:29.028Z,5.90
2023-05-13T15:23:56.773Z,6.05
2023-05-13T15:26:26.130Z,5.20
2023-05-13T15:28:53.994Z,6.40
2023-05-13T15:31:21.919Z,6.63
2023-05-13T15:33:49.735Z,6.25
2023-05-13T15:36:17.553Z,6.50
2023-05-13T15:38:45.403Z,6.68
2023-05-13T15:41:13.099Z,6.80
2023-05-13T15:43:42.146Z,13.98
2023-05-13T15:46:09.947Z,6.75
2023-05-13T15:48:37.708Z,7.18
2023-05-13T15:51:06.889Z,6.47
2023-05-13T15:53:34.780Z,10.65
2023-05-13T15:56:02.539Z,6.50
2023-05-13T15:58:30.298Z,6.30
2023-05-13T16:00:59.392Z,7.00
2023-05-13T16:03:27.154Z,6.68
2023-05-13T16:05:55.330Z,6.05
2023-05-13T16:08:23.075Z,6.18
2023-05-13T16:10:50.849Z,6.28
2023-05-13T16:13:18.591Z,10.38
2023-05-13T16:15:46.445Z,6.75
2023-05-13T16:18:15.601Z,6.20
2023-05-13T16:20:43.498Z,6.22
2023-05-13T16:23:11.282Z,7.18
2023-05-13T16:25:39.444Z,7.45
2023-05-13T16:28:07.394Z,9.02
2023-05-13T16:30:35.264Z,7.88
2023-05-13T16:33:03.097Z,7.20
2023-05-13T16:35:32.285Z,7.00
2023-05-13T16:38:00.128Z,8.57
2023-05-13T16:40:28.021Z,7.15
2023-05-13T16:42:59.303Z,8.10
2023-05-13T16:45:28.855Z,7.78
2023-05-13T16:47:56.729Z,7.85
2023-05-13T16:50:24.892Z,7.78
2023-05-13T16:52:54.576Z,7.65
2023-05-13T16:55:22.519Z,7.90
2023-05-13T16:57:50.946Z,8.27
2023-05-13T17:00:19.404Z,9.30
2023-05-13T17:02:47.292Z,8.60
2023-05-13T17:05:15.082Z,8.02
2023-05-13T17:07:42.816Z,9.23
2023-05-13T17:10:12.331Z,8.73
2023-05-13T17:12:40.447Z,10.25
2023-05-13T17:15:09.159Z,9.25
2023-05-13T17:17:36.959Z,8.40
2023-05-13T17:20:05.519Z,9.43
2023-05-13T17:22:33.358Z,9.13
2023-05-13T17:25:01.093Z,9.00
2023-05-13T17:27:30.390Z,9.27
2023-05-13T17:29:58.121Z,8.65
2023-05-13T17:32:26.223Z,8.77
2023-05-13T17:34:53.935Z,8.40
2023-05-13T17:37:21.690Z,8.88
2023-05-13T17:39:50.353Z,8.38
2023-05-13T17:42:18.075Z,9.35
2023-05-13T17:44:47.222Z,9.13
2023-05-13T17:47:14.938Z,9.20
2023-05-13T17:49:42.721Z,9.70
2023-05-13T17:52:10.910Z,9.00
2023-05-13T17:54:38.681Z,9.95
2023-05-13T17:57:06.801Z,9.43
2023-05-13T17:59:34.529Z,10.02
2023-05-13T18:02:03.633Z,9.10
2023-05-13T18:04:31.386Z,9.70
2023-05-13T18:06:59.215Z,9.93
2023-05-13T18:09:26.977Z,14.40
2023-05-13T18:11:54.727Z,9.50
2023-05-13T18:14:22.589Z,9.00
2023-05-13T18:16:51.038Z,9.45
2023-05-13T18:19:20.395Z,9.68
2023-05-13T18:21:48.179Z,9.68
2023-05-13T18:24:16.368Z,10.38
2023-05-13T18:26:44.206Z,9.65
2023-05-13T18:29:12.370Z,9.70
2023-05-13T18:31:40.217Z,9.93
2023-05-13T18:34:08.087Z,10.15
2023-05-13T18:36:37.352Z,8.82
2023-05-13T18:39:05.343Z,10.02
2023-05-13T18:41:33.093Z,9.52
2023-05-13T18:44:00.831Z,8.27
2023-05-13T18:46:28.863Z,8.95
2023-05-13T18:48:56.880Z,9.63
2023-05-13T18:51:24.744Z,10.13
2023-05-13T18:53:53.967Z,8.55
2023-05-13T18:56:21.749Z,8.95
2023-05-13T18:58:49.490Z,8.90
2023-05-13T19:01:17.361Z,9.00
2023-05-13T19:03:45.434Z,11.05
2023-05-13T19:06:13.383Z,9.65
2023-05-13T19:08:41.104Z,8.82
2023-05-13T19:11:10.295Z,8.82
2023-05-13T19:13:46.840Z,9.48
2023-05-13T19:16:15.709Z,8.80
2023-05-13T19:18:43.704Z,8.90
2023-05-13T19:21:11.561Z,9.05
2023-05-13T19:23:39.336Z,8.65
2023-05-13T19:26:07.199Z,9.15
2023-05-13T19:28:38.068Z,26.83
2023-05-13T19:31:06.360Z,9.93
2023-05-13T19:33:36.964Z,8.85
2023-05-13T19:36:05.012Z,9.30
2023-05-13T19:38:33.120Z,8.93
2023-05-13T19:41:00.933Z,9.40
2023-05-13T19:43:28.713Z,10.52
2023-05-13T19:45:57.846Z,9.60
2023-05-13T19:48:26.809Z,9.38
2023-05-13T19:50:57.876Z,10.10
2023-05-13T19:53:26.105Z,9.68
2023-05-13T19:55:53.813Z,9.35
2023-05-13T19:58:21.571Z,9.48
2023-05-13T20:00:49.307Z,8.73
2023-05-13T20:03:18.722Z,9.70
2023-05-13T20:05:48.670Z,9.15
2023-05-13T20:08:16.458Z,9.10
2023-05-13T20:10:44.236Z,8.45
2023-05-13T20:13:12.352Z,8.93
2023-05-13T20:15:40.169Z,9.07
2023-05-13T20:18:08.029Z,8.95
2023-05-13T20:20:37.209Z,9.15
2023-05-13T20:23:04.933Z,8.45
2023-05-13T20:25:32.675Z,8.88
2023-05-13T20:28:00.562Z,8.57
2023-05-13T20:30:28.324Z,8.55
2023-05-13T20:32:56.109Z,12.95
2023-05-13T20:35:24.155Z,10.55
2023-05-13T20:37:53.256Z,9.88
2023-05-13T20:40:21.131Z,9.38
2023-05-13T20:42:49.026Z,9.15
2023-05-13T20:45:16.977Z,8.85
2023-05-13T20:47:44.765Z,8.57
2023-05-13T20:50:13.432Z,8.77
2023-05-13T20:52:41.231Z,8.30
2023-05-13T20:55:11.091Z,9.27
2023-05-13T20:57:38.816Z,8.30
2023-05-13T21:00:08.035Z,8.93
2023-05-13T21:02:35.900Z,9.35
2023-05-13T21:05:03.697Z,9.00
2023-05-13T21:07:31.583Z,18.17
2023-05-13T21:09:59.446Z,9.80
2023-05-13T21:12:28.615Z,9.40
2023-05-13T21:14:56.393Z,9.98
2023-05-13T21:17:24.753Z,9.30
2023-05-13T21:19:52.657Z,8.93
2023-05-13T21:22:20.889Z,9.93
2023-05-13T21:24:48.714Z,9.73
2023-05-13T21:27:16.476Z,9.38
2023-05-13T21:29:45.745Z,9.70
2023-05-13T21:32:13.503Z,8.93
2023-05-13T21:34:41.326Z,9.82
2023-05-13T21:37:09.100Z,9.98
2023-05-13T21:39:36.851Z,9.63
2023-05-13T21:42:04.723Z,10.52
2023-05-13T21:44:32.449Z,10.27
2023-05-13T21:47:01.538Z,10.02
2023-05-13T21:49:29.308Z,13.43
2023-05-13T21:51:57.131Z,9.93
2023-05-13T21:54:24.937Z,9.75
2023-05-13T21:56:52.663Z,8.70
2023-05-13T21:59:20.363Z,9.43
2023-05-13T22:01:48.124Z,9.32
2023-05-13T22:04:17.330Z,9.52
2023-05-13T22:06:45.104Z,10.02
2023-05-13T22:09:12.888Z,8.90
2023-05-13T22:11:40.611Z,9.98
2023-05-13T22:14:08.326Z,10.48
2023-05-13T22:16:36.452Z,9.77
2023-05-13T22:19:04.670Z,9.40
2023-05-13T22:21:34.259Z,8.32
2023-05-13T22:24:02.014Z,8.80
2023-05-13T22:26:29.712Z,9.27
2023-05-13T22:28:57.438Z,8.35
2023-05-13T22:31:25.842Z,9.48
2023-05-13T22:33:53.688Z,9.65
2023-05-13T22:36:21.483Z,9.45
2023-05-13T22:38:50.781Z,9.85
2023-05-13T22:41:20.808Z,9.98
2023-05-13T22:43:48.594Z,8.35
2023-05-13T22:46:16.406Z,8.57
2023-05-13T22:48:44.363Z,9.73
2023-05-13T22:51:12.146Z,8.75
2023-05-13T22:53:39.888Z,9.60
2023-05-13T22:56:09.207Z,9.52
2023-05-13T22:58:37.001Z,9.77
2023-05-13T23:01:04.740Z,15.23
2023-05-13T23:03:32.690Z,12.43
2023-05-13T23:06:00.430Z,9.07
2023-05-13T23:08:28.421Z,8.95
2023-05-13T23:10:57.123Z,9.20
2023-05-13T23:13:26.355Z,9.05
2023-05-13T23:15:54.147Z,8.63
2023-05-13T23:18:22.049Z,8.95
2023-05-13T23:20:55.764Z,9.18
2023-05-13T23:23:23.756Z,9.43
2023-05-13T23:25:51.742Z,8.77
2023-05-13T23:28:19.531Z,9.85
2023-05-13T23:30:48.851Z,9.73
2023-05-13T23:33:16.697Z,9.30
2023-05-13T23:35:44.555Z,9.10
2023-05-13T23:38:12.478Z,9.27
2023-05-13T23:40:40.376Z,9.60
2023-05-13T23:43:08.209Z,9.32
2023-05-13T23:45:36.141Z,11.70
2023-05-13T23:48:05.925Z,10.25
2023-05-13T23:50:33.880Z,9.63
2023-05-13T23:53:01.669Z,9.57
2023-05-13T23:55:29.474Z,9.50
2023-05-13T23:57:57.234Z,8.82
